Time,TemperatureF,DewpointF,PressureIn,WindDirection,WindDirectionDegrees,WindSpeedMPH,WindSpeedGustMPH,Humidity,HourlyPrecipIn,Conditions,Clouds,dailyrainin,SolarRadiationWatts/m^2,SoftwareType,DateUTC
2013-07-14 00:02:00,63.0,58.0,-100.00,SE,141,0.0,4.0,85,0.00,,,0.00,0.000000,,2013-07-14 05:02:00,
2013-07-14 00:11:00,63.0,58.0,-100.00,SE,141,0.0,4.0,85,0.00,,,0.00,0.000000,,2013-07-14 05:11:00,
2013-07-14 00:32:00,60.0,57.0,-100.00,NNW,328,0.0,1.0,91,0.00,,,0.00,0.000000,,2013-07-14 05:32:00,
2013-07-14 00:43:00,60.0,57.0,-100.00,NNW,328,0.0,1.0,91,0.00,,,0.00,0.000000,,2013-07-14 05:43:00,
2013-07-14 00:53:00,60.0,57.0,-100.00,NNW,328,0.0,1.0,91,0.00,,,0.00,0.000000,,2013-07-14 05:53:00,
2013-07-14 01:01:00,60.0,57.0,-100.00,NNW,328,0.0,1.0,91,0.00,,,0.00,0.000000,,2013-07-14 06:01:00,
2013-07-14 01:11:00,60.0,57.0,-100.00,NNW,328,0.0,1.0,91,0.00,,,0.00,0.000000,,2013-07-14 06:11:00,
2013-07-14 01:12:00,58.0,56.0,-100.00,WNW,299,0.0,1.0,94,0.00,,,0.00,0.000000,,2013-07-14 06:12:00,
2013-07-14 01:42:00,58.0,56.0,-100.00,WNW,299,0.0,1.0,94,0.00,,,0.00,0.000000,,2013-07-14 06:42:00,
2013-07-14 01:53:00,58.0,56.0,-100.00,WNW,299,0.0,1.0,94,0.00,,,0.00,0.000000,,2013-07-14 06:53:00,
2013-07-14 02:02:00,58.0,56.0,-100.00,WNW,299,0.0,1.0,94,0.00,,,0.00,0.000000,,2013-07-14 07:02:00,
2013-07-14 02:43:00,57.0,56.0,-100.00,ESE,104,0.0,0.0,95,0.00,,,0.00,0.000000,,2013-07-14 07:43:00,
2013-07-14 02:53:00,57.0,56.0,-100.00,ESE,104,0.0,0.0,95,0.00,,,0.00,0.000000,,2013-07-14 07:53:00,
2013-07-14 03:01:00,57.0,56.0,-100.00,ESE,104,0.0,0.0,95,0.00,,,0.00,0.000000,,2013-07-14 08:01:00,
2013-07-14 03:11:00,57.0,56.0,-100.00,ESE,104,0.0,0.0,95,0.00,,,0.00,0.000000,,2013-07-14 08:11:00,
2013-07-14 03:42:00,56.0,55.0,-100.00,ESE,104,0.0,1.0,95,0.00,,,0.00,0.000000,,2013-07-14 08:42:00,
2013-07-14 03:53:00,56.0,55.0,-100.00,ESE,104,0.0,1.0,95,0.00,,,0.00,0.000000,,2013-07-14 08:53:00,
2013-07-14 04:01:00,56.0,55.0,-100.00,ESE,104,0.0,1.0,95,0.00,,,0.00,0.000000,,2013-07-14 09:01:00,
2013-07-14 04:11:00,56.0,55.0,-100.00,ESE,104,0.0,1.0,95,0.00,,,0.00,0.000000,,2013-07-14 09:11:00,
2013-07-14 04:42:00,55.0,54.0,-100.00,ESE,104,0.0,0.0,96,0.00,,,0.00,0.000000,,2013-07-14 09:42:00,
2013-07-14 04:53:00,55.0,54.0,-100.00,ESE,104,0.0,0.0,96,0.00,,,0.00,0.000000,,2013-07-14 09:53:00,
2013-07-14 05:01:00,55.0,54.0,-100.00,ESE,104,0.0,0.0,96,0.00,,,0.00,0.000000,,2013-07-14 10:01:00,
2013-07-14 05:11:00,55.0,54.0,-100.00,ESE,104,0.0,0.0,96,0.00,,,0.00,0.000000,,2013-07-14 10:11:00,
2013-07-14 05:42:00,54.0,53.0,-100.00,ESE,104,0.0,0.0,96,0.00,,,0.00,0.000000,,2013-07-14 10:42:00,
2013-07-14 05:53:00,54.0,53.0,-100.00,ESE,104,0.0,0.0,96,0.00,,,0.00,0.000000,,2013-07-14 10:53:00,
2013-07-14 06:02:00,54.0,53.0,-100.00,ESE,104,0.0,0.0,96,0.00,,,0.00,0.000000,,2013-07-14 11:02:00,
2013-07-14 06:11:00,54.0,53.0,-100.00,ESE,104,0.0,0.0,96,0.00,,,0.00,0.000000,,2013-07-14 11:11:00,
2013-07-14 06:43:00,55.0,54.0,-100.00,ESE,104,0.0,0.0,96,0.00,,,0.00,14.000000,,2013-07-14 11:43:00,
2013-07-14 06:53:00,55.0,54.0,-100.00,ESE,104,0.0,0.0,96,0.00,,,0.00,14.000000,,2013-07-14 11:53:00,
2013-07-14 07:02:00,55.0,54.0,-100.00,ESE,104,0.0,0.0,96,0.00,,,0.00,14.000000,,2013-07-14 12:02:00,
2013-07-14 07:11:00,55.0,54.0,-100.00,ESE,104,0.0,0.0,96,0.00,,,0.00,14.000000,,2013-07-14 12:11:00,
2013-07-14 07:43:00,64.0,59.0,-100.00,North,354,1.0,2.0,85,0.00,,,0.00,133.000000,,2013-07-14 12:43:00,
2013-07-14 07:53:00,64.0,59.0,-100.00,North,354,1.0,2.0,85,0.00,,,0.00,133.000000,,2013-07-14 12:53:00,
2013-07-14 08:01:00,64.0,59.0,-100.00,North,354,1.0,2.0,85,0.00,,,0.00,133.000000,,2013-07-14 13:01:00,
2013-07-14 08:11:00,64.0,59.0,-100.00,North,354,1.0,2.0,85,0.00,,,0.00,133.000000,,2013-07-14 13:11:00,
2013-07-14 08:42:00,73.0,61.0,-100.00,SE,134,1.0,3.0,67,0.00,,,0.00,295.000000,,2013-07-14 13:42:00,
2013-07-14 08:53:00,73.0,61.0,-100.00,SE,134,1.0,3.0,67,0.00,,,0.00,295.000000,,2013-07-14 13:53:00,
2013-07-14 09:02:00,73.0,61.0,-100.00,SE,134,1.0,3.0,67,0.00,,,0.00,295.000000,,2013-07-14 14:02:00,
2013-07-14 09:11:00,73.0,61.0,-100.00,SE,134,1.0,3.0,67,0.00,,,0.00,295.000000,,2013-07-14 14:11:00,
2013-07-14 09:12:00,76.0,63.0,-100.00,SSE,150,4.0,8.0,64,0.00,,,0.00,451.000000,,2013-07-14 14:12:00,
2013-07-14 09:43:00,76.0,63.0,-100.00,SSE,150,4.0,8.0,64,0.00,,,0.00,451.000000,,2013-07-14 14:43:00,
2013-07-14 09:53:00,76.0,63.0,-100.00,SSE,150,4.0,8.0,64,0.00,,,0.00,451.000000,,2013-07-14 14:53:00,
2013-07-14 10:01:00,76.0,63.0,-100.00,SSE,150,4.0,8.0,64,0.00,,,0.00,451.000000,,2013-07-14 15:01:00,
2013-07-14 10:32:00,80.0,66.0,-100.00,SE,133,3.0,8.0,62,0.00,,,0.00,627.000000,,2013-07-14 15:32:00,
2013-07-14 10:42:00,80.0,66.0,-100.00,SE,133,3.0,8.0,62,0.00,,,0.00,627.000000,,2013-07-14 15:42:00,
2013-07-14 10:53:00,80.0,66.0,-100.00,SE,133,3.0,8.0,62,0.00,,,0.00,627.000000,,2013-07-14 15:53:00,
2013-07-14 11:01:00,80.0,66.0,-100.00,SE,133,3.0,8.0,62,0.00,,,0.00,627.000000,,2013-07-14 16:01:00,
2013-07-14 11:11:00,80.0,66.0,-100.00,SE,133,3.0,8.0,62,0.00,,,0.00,627.000000,,2013-07-14 16:11:00,
2013-07-14 11:43:00,83.0,67.0,-100.00,SSE,163,4.0,9.0,58,0.00,,,0.00,745.000000,,2013-07-14 16:43:00,
2013-07-14 11:53:00,83.0,67.0,-100.00,SSE,163,4.0,9.0,58,0.00,,,0.00,745.000000,,2013-07-14 16:53:00,
2013-07-14 12:02:00,83.0,67.0,-100.00,SSE,163,4.0,9.0,58,0.00,,,0.00,745.000000,,2013-07-14 17:02:00,
2013-07-14 12:11:00,83.0,67.0,-100.00,SSE,163,4.0,9.0,58,0.00,,,0.00,745.000000,,2013-07-14 17:11:00,
2013-07-14 12:43:00,84.0,64.0,-100.00,South,173,5.0,10.0,52,0.00,,,0.00,886.000000,,2013-07-14 17:43:00,
2013-07-14 12:53:00,84.0,64.0,-100.00,South,173,5.0,10.0,52,0.00,,,0.00,886.000000,,2013-07-14 17:53:00,
2013-07-14 13:01:00,84.0,64.0,-100.00,South,173,5.0,10.0,52,0.00,,,0.00,886.000000,,2013-07-14 18:01:00,
2013-07-14 13:11:00,84.0,64.0,-100.00,South,173,5.0,10.0,52,0.00,,,0.00,886.000000,,2013-07-14 18:11:00,
2013-07-14 13:42:00,85.0,64.0,-100.00,South,173,5.0,13.0,49,0.00,,,0.00,765.000000,,2013-07-14 18:42:00,
2013-07-14 13:52:00,85.0,64.0,-100.00,South,173,5.0,13.0,49,0.00,,,0.00,765.000000,,2013-07-14 18:52:00,
2013-07-14 14:01:00,85.0,64.0,-100.00,South,173,5.0,13.0,49,0.00,,,0.00,765.000000,,2013-07-14 19:01:00,
2013-07-14 14:11:00,85.0,64.0,-100.00,South,173,5.0,13.0,49,0.00,,,0.00,765.000000,,2013-07-14 19:11:00,
2013-07-14 14:43:00,87.0,65.0,-100.00,SSE,158,5.0,12.0,48,0.00,,,0.00,605.000000,,2013-07-14 19:43:00,
2013-07-14 14:53:00,87.0,65.0,-100.00,SSE,158,5.0,12.0,48,0.00,,,0.00,605.000000,,2013-07-14 19:53:00,
2013-07-14 15:02:00,87.0,65.0,-100.00,SSE,158,5.0,12.0,48,0.00,,,0.00,605.000000,,2013-07-14 20:02:00,
2013-07-14 15:11:00,87.0,65.0,-100.00,SSE,158,5.0,12.0,48,0.00,,,0.00,605.000000,,2013-07-14 20:11:00,
2013-07-14 15:43:00,88.0,63.0,-100.00,SSE,165,4.0,13.0,44,0.00,,,0.00,673.000000,,2013-07-14 20:43:00,
2013-07-14 15:53:00,88.0,63.0,-100.00,SSE,165,4.0,13.0,44,0.00,,,0.00,673.000000,,2013-07-14 20:53:00,
2013-07-14 16:02:00,88.0,63.0,-100.00,SSE,165,4.0,13.0,44,0.00,,,0.00,673.000000,,2013-07-14 21:02:00,
2013-07-14 16:11:00,88.0,63.0,-100.00,SSE,165,4.0,13.0,44,0.00,,,0.00,673.000000,,2013-07-14 21:11:00,
2013-07-14 16:43:00,88.0,64.0,-100.00,SSE,155,4.0,12.0,45,0.00,,,0.00,744.000000,,2013-07-14 21:43:00,
2013-07-14 16:53:00,88.0,64.0,-100.00,SSE,155,4.0,12.0,45,0.00,,,0.00,744.000000,,2013-07-14 21:53:00,
2013-07-14 17:01:00,88.0,64.0,-100.00,SSE,155,4.0,12.0,45,0.00,,,0.00,744.000000,,2013-07-14 22:01:00,
2013-07-14 17:11:00,88.0,64.0,-100.00,SSE,155,4.0,12.0,45,0.00,,,0.00,744.000000,,2013-07-14 22:11:00,
2013-07-14 17:42:00,86.0,63.0,-100.00,SSE,152,4.0,11.0,47,0.00,,,0.00,434.000000,,2013-07-14 22:42:00,
2013-07-14 17:53:00,86.0,63.0,-100.00,SSE,152,4.0,11.0,47,0.00,,,0.00,434.000000,,2013-07-14 22:53:00,
2013-07-14 18:01:00,86.0,63.0,-100.00,SSE,152,4.0,11.0,47,0.00,,,0.00,434.000000,,2013-07-14 23:01:00,
2013-07-14 18:11:00,86.0,63.0,-100.00,SSE,152,4.0,11.0,47,0.00,,,0.00,434.000000,,2013-07-14 23:11:00,
2013-07-14 18:42:00,85.0,64.0,-100.00,SE,144,3.0,8.0,50,0.00,,,0.00,253.000000,,2013-07-14 23:42:00,
2013-07-14 18:53:00,85.0,64.0,-100.00,SE,144,3.0,8.0,50,0.00,,,0.00,253.000000,,2013-07-14 23:53:00,
2013-07-14 19:02:00,85.0,64.0,-100.00,SE,144,3.0,8.0,50,0.00,,,0.00,253.000000,,2013-07-15 00:02:00,
2013-07-14 19:11:00,85.0,64.0,-100.00,SE,144,3.0,8.0,50,0.00,,,0.00,253.000000,,2013-07-15 00:11:00,
2013-07-14 20:32:00,79.0,68.0,-100.00,SSE,149,0.0,4.0,70,-99.99,,,0.00,86.000000,,2013-07-15 01:32:00,
2013-07-14 20:43:00,79.0,68.0,-100.00,SSE,149,0.0,4.0,70,-99.99,,,0.00,86.000000,,2013-07-15 01:43:00,
2013-07-14 20:53:00,79.0,68.0,-100.00,SSE,149,0.0,4.0,70,-99.99,,,0.00,86.000000,,2013-07-15 01:53:00,
2013-07-14 21:02:00,79.0,68.0,-100.00,SSE,149,0.0,4.0,70,-99.99,,,0.00,86.000000,,2013-07-15 02:02:00,
2013-07-14 21:11:00,79.0,68.0,-100.00,SSE,149,0.0,4.0,70,-99.99,,,0.00,86.000000,,2013-07-15 02:11:00,
2013-07-14 21:42:00,72.0,69.0,-100.00,SSE,149,0.0,0.0,89,0.00,,,0.00,4.000000,,2013-07-15 02:42:00,
2013-07-14 21:53:00,72.0,69.0,-100.00,SSE,149,0.0,0.0,89,0.00,,,0.00,4.000000,,2013-07-15 02:53:00,
2013-07-14 22:02:00,72.0,69.0,-100.00,SSE,149,0.0,0.0,89,0.00,,,0.00,4.000000,,2013-07-15 03:02:00,
2013-07-14 22:11:00,72.0,69.0,-100.00,SSE,149,0.0,0.0,89,0.00,,,0.00,4.000000,,2013-07-15 03:11:00,
2013-07-14 22:43:00,69.0,67.0,-100.00,SSE,149,0.0,0.0,94,0.00,,,0.00,0.000000,,2013-07-15 03:43:00,
2013-07-14 22:53:00,69.0,67.0,-100.00,SSE,149,0.0,0.0,94,0.00,,,0.00,0.000000,,2013-07-15 03:53:00,
2013-07-14 23:01:00,69.0,67.0,-100.00,SSE,149,0.0,0.0,94,0.00,,,0.00,0.000000,,2013-07-15 04:01:00,
2013-07-14 23:11:00,69.0,67.0,-100.00,SSE,149,0.0,0.0,94,0.00,,,0.00,0.000000,,2013-07-15 04:11:00,
2013-07-14 23:33:00,69.0,67.0,-100.00,SSE,160,0.0,1.0,94,0.00,,,0.00,0.000000,,2013-07-15 04:33:00,
2013-07-14 23:42:00,69.0,67.0,-100.00,SSE,160,0.0,1.0,94,0.00,,,0.00,0.000000,,2013-07-15 04:42:00,
2013-07-14 23:54:00,69.0,67.0,-100.00,SSE,160,0.0,1.0,94,0.00,,,0.00,0.000000,,2013-07-15 04:54:00,